Tune, Denmark
Current Conditions -  °F | °C
As of 8:20 AM on Saturday 25 Oct 2014 (Local Time) from EKRK Reporting Station
Light Rain Light Rain  
Wind Chill: 43°   Ceiling: 800
Heat Index: 48°   Visibility: 3mi
Dew Point: 48°   Wind: 14mph
Humidity: 100%   Direction: 170°S
Pressure: 29.97"   Gusts: NA
Location:  55.6°N, 12.18°E
Report Text: EKRK 250620Z AUTO 17012KT 5000NDV -RA SCT006/// BKN008///BKN010/// 09/09 Q1015
Loading
Personal Weather Stations






























Interactive Weather Map
Tropical Storm Tracking
New forecast layout! Learn more

10-Day Weather Forecast

Advertisements
Track Severe Weather on mobile